Time;durP1;ratioP1;P1;durP2;ratioP2;P2;SDS_P1;SDS_P2;PMS_P1;PMS_P2;Temp;Humidity;BMP_temperature;BMP_pressure;BME280_temperature;BME280_humidity;BME280_pressure;Samples;Min_cycle;Max_cycle;Signal;HPM_P1;HPM_P2
2022/11/09 00:06:06;;;;;;;14.97;10.60;;;;;;;;;;10493127;28;20241;-82
2022/11/09 00:12:06;;;;;;;15.30;10.80;;;;;;;;;;10502166;28;20189;-82
2022/11/09 00:17:27;;;;;;;17.93;10.57;;;;;;;;;;10451991;28;20228;-82
2022/11/09 00:22:49;;;;;;;14.43;9.50;;;;;;;;;;10408329;28;20226;-82
2022/11/09 00:28:10;;;;;;;16.37;9.40;;;;;;;;;;10410520;28;20199;-82
2022/11/09 00:33:32;;;;;;;16.63;10.87;;;;;;;;;;10423895;28;20225;-82
2022/11/09 00:38:58;;;;;;;17.40;11.00;;;;;;;;;;10424059;28;20194;-82
2022/11/09 00:44:19;;;;;;;17.57;10.03;;;;;;;;;;10438029;28;20587;-81
2022/11/09 00:49:41;;;;;;;17.03;9.37;;;;;;;;;;10410673;28;20194;-82
2022/11/09 00:55:03;;;;;;;15.40;9.07;;;;;;;;;;10409540;28;20208;-82
2022/11/09 01:00:25;;;;;;;15.83;9.73;;;;;;;;;;10409451;28;20247;-82
2022/11/09 01:05:46;;;;;;;17.90;10.50;;;;;;;;;;10398759;28;20253;-83
2022/11/09 01:11:11;;;;;;;17.33;10.00;;;;;;;;;;10396931;28;20366;-82
2022/11/09 01:16:32;;;;;;;17.67;10.30;;;;;;;;;;10382690;28;20195;-82
2022/11/09 01:21:57;;;;;;;17.13;9.90;;;;;;;;;;10379857;28;20228;-82
2022/11/09 01:27:21;;;;;;;16.13;10.37;;;;;;;;;;10382661;28;20203;-82
2022/11/09 01:32:43;;;;;;;20.53;10.03;;;;;;;;;;10381694;28;20204;-82
2022/11/09 01:38:05;;;;;;;19.10;11.10;;;;;;;;;;10382069;28;20251;-82
2022/11/09 01:43:27;;;;;;;12.40;9.13;;;;;;;;;;10367945;28;20318;-83
2022/11/09 01:48:48;;;;;;;19.47;10.90;;;;;;;;;;10382553;28;20205;-83
2022/11/09 01:54:14;;;;;;;12.57;8.70;;;;;;;;;;10382567;28;20200;-83
2022/11/09 01:59:38;;;;;;;12.30;9.33;;;;;;;;;;10381927;28;20310;-81
2022/11/09 02:05:02;;;;;;;19.87;10.33;;;;;;;;;;10398683;28;20548;-81
2022/11/09 02:10:29;;;;;;;14.10;9.53;;;;;;;;;;10413362;28;20242;-82
2022/11/09 02:15:53;;;;;;;18.03;11.43;;;;;;;;;;10430013;28;20191;-81
2022/11/09 02:21:14;;;;;;;28.13;18.30;;;;;;;;;;10427474;28;20208;-81
2022/11/09 02:26:47;;;;;;;20.30;14.40;;;;;;;;;;10429339;28;20202;-82
2022/11/09 02:32:14;;;;;;;19.53;12.47;;;;;;;;;;10429023;28;20203;-81
2022/11/09 02:37:41;;;;;;;17.53;10.87;;;;;;;;;;10442886;28;20202;-82
2022/11/09 02:43:03;;;;;;;12.13;9.03;;;;;;;;;;10414703;28;20232;-82
2022/11/09 02:48:25;;;;;;;18.73;10.70;;;;;;;;;;10427702;28;20317;-82
2022/11/09 02:53:50;;;;;;;28.07;11.83;;;;;;;;;;10404031;28;20197;-81
2022/11/09 02:59:14;;;;;;;17.33;11.40;;;;;;;;;;10387839;28;20379;-82
2022/11/09 03:04:36;;;;;;;21.03;14.20;;;;;;;;;;10387438;28;20241;-82
2022/11/09 03:09:58;;;;;;;16.47;12.27;;;;;;;;;;10428031;28;20189;-81
2022/11/09 03:15:20;;;;;;;15.47;10.47;;;;;;;;;;10413760;28;20568;-82
2022/11/09 03:20:42;;;;;;;13.53;9.60;;;;;;;;;;10386530;28;20223;-81
2022/11/09 03:26:04;;;;;;;14.27;9.83;;;;;;;;;;10401158;28;20532;-82
2022/11/09 03:31:25;;;;;;;14.47;9.83;;;;;;;;;;10382926;28;20179;-83
2022/11/09 03:36:48;;;;;;;17.83;11.30;;;;;;;;;;10398293;28;20244;-81
2022/11/09 03:42:11;;;;;;;16.17;10.77;;;;;;;;;;10386181;28;20250;-81
2022/11/09 03:47:33;;;;;;;14.63;9.43;;;;;;;;;;10386176;28;20195;-81
2022/11/09 03:52:54;;;;;;;14.33;9.47;;;8.60;99.90;;;;;;10418766;28;20200;-81
2022/11/09 03:58:15;;;;;;;16.90;10.90;;;8.50;99.90;;;;;;10411962;28;20247;-82
2022/11/09 04:03:39;;;;;;;19.00;11.80;;;;;;;;;;10425755;28;20300;-82
2022/11/09 04:09:00;;;;;;;18.20;11.73;;;;;;;;;;10439474;28;20209;-82
2022/11/09 04:14:22;;;;;;;20.57;12.83;;;;;;;;;;10411432;28;20207;-82
2022/11/09 04:19:43;;;;;;;18.17;12.63;;;;;;;;;;10389057;28;20195;-82
2022/11/09 04:25:05;;;;;;;20.27;12.73;;;;;;;;;;10423445;28;20299;-83
2022/11/09 04:30:28;;;;;;;18.60;12.53;;;;;;;;;;10423582;28;20510;-82
2022/11/09 04:35:49;;;;;;;18.57;12.07;;;;;;;;;;10410425;28;20201;-82
2022/11/09 04:41:11;;;;;;;22.00;13.27;;;;;;;;;;10423671;28;20275;-82
2022/11/09 04:46:32;;;;;;;22.33;14.33;;;;;;;;;;10423427;28;20229;-82
2022/11/09 04:51:53;;;;;;;21.20;13.27;;;;;;;;;;10396340;28;20276;-83
2022/11/09 04:57:15;;;;;;;27.87;12.47;;;;;;;;;;10382664;28;20194;-83
2022/11/09 05:02:36;;;;;;;16.63;12.20;;;;;;;;;;10368690;28;20467;-83
2022/11/09 05:07:58;;;;;;;20.90;13.87;;;;;;;;;;10409987;28;20204;-83
2022/11/09 05:13:19;;;;;;;23.90;14.93;;;;;;;;;;10422872;28;20196;-83
2022/11/09 05:18:41;;;;;;;24.67;16.07;;;;;;;;;;10436596;28;20196;-82
2022/11/09 05:24:02;;;;;;;28.83;17.70;;;;;;;;;;10408773;28;20317;-83
2022/11/09 05:29:24;;;;;;;24.63;17.13;;;;;;;;;;10395618;28;20188;-83
2022/11/09 05:34:45;;;;;;;36.67;24.33;;;8.20;99.90;;;;;;10381506;28;20320;-83
2022/11/09 05:40:08;;;;;;;28.50;19.43;;;;;;;;;;10367751;28;20197;-82
2022/11/09 05:45:29;;;;;;;26.30;17.70;;;8.00;99.90;;;;;;10395136;28;20234;-82
2022/11/09 05:51:08;;;;;;;27.53;18.10;;;7.90;99.90;;;;;;10423722;28;20205;-83
2022/11/09 05:56:29;;;;;;;21.60;14.73;;;7.90;99.90;;;;;;10422479;28;20195;-82
2022/11/09 06:01:50;;;;;;;26.30;18.53;;;7.90;99.90;;;;;;10436423;28;20198;-82
2022/11/09 06:07:12;;;;;;;39.97;26.10;;;7.90;99.90;;;;;;10411496;28;20237;-82
2022/11/09 06:12:33;;;;;;;52.57;33.87;;;7.90;99.90;;;;;;10435887;28;20194;-82
2022/11/09 06:17:55;;;;;;;80.90;44.00;;;7.90;99.90;;;;;;10436490;28;20184;-82
2022/11/09 06:23:17;;;;;;;85.07;45.60;;;7.90;99.90;;;;;;10395663;28;20566;-83
2022/11/09 06:28:40;;;;;;;80.43;43.70;;;7.80;99.90;;;;;;10380338;28;20249;-82
2022/11/09 06:34:02;;;;;;;48.17;29.30;;;7.80;99.90;;;;;;10380146;28;20201;-83
2022/11/09 06:39:23;;;;;;;51.43;30.17;;;7.80;99.90;;;;;;10382883;28;20491;-82
2022/11/09 06:44:44;;;;;;;68.30;39.53;;;7.70;99.90;;;;;;10414741;28;20216;-82
2022/11/09 06:50:06;;;;;;;61.87;37.03;;;7.70;99.90;;;;;;10420704;28;20443;-82
2022/11/09 06:55:29;;;;;;;51.20;31.60;;;7.70;99.90;;;;;;10424483;28;20518;-82
2022/11/09 07:00:50;;;;;;;37.10;24.67;;;7.80;99.90;;;;;;10421652;28;20188;-83
2022/11/09 07:06:12;;;;;;;28.20;19.83;;;7.90;99.90;;;;;;10417457;28;20586;-82
2022/11/09 07:11:34;;;;;;;28.87;19.47;;;8.10;99.90;;;;;;10413685;28;20205;-82
2022/11/09 07:16:55;;;;;;;40.20;22.13;;;8.40;99.90;;;;;;10427298;28;20287;-82
2022/11/09 07:22:16;;;;;;;29.83;19.13;;;8.70;99.90;;;;;;10427150;28;20508;-82
2022/11/09 07:27:37;;;;;;;32.90;19.40;;;8.90;99.90;;;;;;10441848;28;20514;-82
2022/11/09 07:33:00;;;;;;;33.40;19.93;;;9.50;99.90;;;;;;10425670;28;20214;-82
2022/11/09 07:38:29;;;;;;;27.27;18.70;;;10.40;1.30;;;;;;10446008;28;20208;-82
2022/11/09 07:43:50;;;;;;;37.63;21.40;;;11.10;1.00;;;;;;10426178;28;20226;-82
2022/11/09 07:49:12;;;;;;;98.77;46.93;;;11.40;1.00;;;;;;10412109;28;20198;-82
2022/11/09 07:54:33;;;;;;;33.77;20.50;;;11.40;99.90;;;;;;10425775;28;20204;-82
2022/11/09 07:59:54;;;;;;;37.47;22.43;;;11.40;99.90;;;;;;10421991;28;20195;-82
2022/11/09 08:05:17;;;;;;;41.33;23.00;;;11.60;1.00;;;;;;10390983;28;20242;-82
2022/11/09 08:10:38;;;;;;;31.70;18.73;;;11.50;1.00;;;;;;10418661;28;20215;-82
2022/11/09 08:16:01;;;;;;;38.10;20.50;;;12.10;1.00;;;;;;10384467;28;20213;-82
2022/11/09 08:21:23;;;;;;;35.67;21.20;;;12.60;1.00;;;;;;10377711;28;20210;-82
2022/11/09 08:26:45;;;;;;;38.95;23.40;;;12.90;99.90;;;;;;10387778;28;20310;-83
2022/11/09 08:32:07;;;;;;;42.92;22.98;;;13.50;99.90;;;;;;10401991;28;20209;-83
2022/11/09 08:37:28;;;;;;;33.70;20.15;;;14.00;99.90;;;;;;10420862;28;20254;-80
2022/11/09 08:42:51;;;;;;;23.58;14.25;;;13.80;1.00;;;;;;10399254;28;20226;-85
2022/11/09 08:48:13;;;;;;;22.87;15.43;;;13.70;99.90;;;;;;10405374;28;20197;-88
2022/11/09 08:53:34;;;;;;;24.08;16.33;;;13.20;1.00;;;;;;10405109;28;20215;-83
2022/11/09 08:58:55;;;;;;;32.53;19.80;;;13.10;1.00;;;;;;10407116;28;20203;-82
2022/11/09 09:04:16;;;;;;;23.83;14.87;;;12.90;99.90;;;;;;10410832;28;20242;-81
2022/11/09 09:09:38;;;;;;;19.70;12.87;;;12.80;99.90;;;;;;10377173;28;20201;-83
2022/11/09 09:14:59;;;;;;;20.47;11.97;;;12.70;99.90;;;;;;10391942;28;20217;-82
2022/11/09 09:20:20;;;;;;;29.33;14.53;;;12.60;99.90;;;;;;10397345;28;20225;-81
2022/11/09 09:25:42;;;;;;;38.23;25.57;;;12.70;99.90;;;;;;10430837;28;20272;-86
2022/11/09 09:31:08;;;;;;;20.50;13.53;;;12.70;99.90;;;;;;10403736;28;20439;-83
2022/11/09 09:36:31;;;;;;;17.93;11.90;;;12.60;99.90;;;;;;10388093;28;20554;-83
2022/11/09 09:41:57;;;;;;;29.37;15.33;;;12.60;99.90;;;;;;10431696;28;20200;-81
2022/11/09 09:47:24;;;;;;;20.30;13.47;;;12.60;99.90;;;;;;10394923;28;20261;-88
2022/11/09 09:53:24;;;;;;;16.27;11.80;;;12.60;99.90;;;;;;10377169;28;20230;-82
2022/11/09 09:58:57;;;;;;;22.50;14.03;;;12.50;99.90;;;;;;10279549;28;20207;-82
2022/11/09 10:04:36;;;;;;;25.90;16.37;;;12.60;99.90;;;;;;10278136;28;20544;-84
2022/11/09 10:10:29;;;;;;;57.47;36.77;;;12.50;99.90;;;;;;10279543;28;20216;-83
2022/11/09 10:16:16;;;;;;;34.10;21.83;;;12.50;99.90;;;;;;10304246;28;20212;-83
2022/11/09 10:21:51;;;;;;;31.27;17.00;;;12.70;99.90;;;;;;10317626;28;20202;-86
2022/11/09 10:27:29;;;;;;;49.27;23.97;;;12.70;99.90;;;;;;10351255;28;20226;-84
2022/11/09 10:33:08;;;;;;;23.73;15.57;;;12.60;99.90;;;;;;10397297;28;20213;-87
2022/11/09 10:38:39;;;;;;;27.80;15.90;;;12.40;99.90;;;;;;10413876;28;20211;-85
2022/11/09 10:44:19;;;;;;;21.07;13.37;;;12.20;99.90;;;;;;10438971;28;20529;-82
2022/11/09 10:50:28;;;;;;;30.63;18.67;;;12.10;99.90;;;;;;10437496;28;20193;-82
2022/11/09 10:56:17;;;;;;;39.80;23.63;;;12.10;99.90;;;;;;10426169;28;20220;-81
2022/11/09 11:01:59;;;;;;;20.60;14.83;;;12.20;99.90;;;;;;10418736;28;20214;-82
2022/11/09 11:07:40;;;;;;;29.33;16.10;;;12.00;1.00;;;;;;10435347;28;20208;-84
2022/11/09 11:13:23;;;;;;;19.50;13.57;;;11.90;1.00;;;;;;10425880;28;20211;-84
2022/11/09 11:31:47;;;;;;;21.83;14.33;;;11.50;1.00;;;;;;11188883;23;20234;-79
2022/11/09 11:38:26;;;;;;;20.73;15.43;;;11.40;99.90;;;;;;10428358;28;20190;-78
2022/11/09 11:45:12;;;;;;;20.13;13.17;;;11.30;1.00;;;;;;10425667;28;20249;-79
2022/11/09 11:51:38;;;;;;;29.07;16.47;;;11.20;1.00;;;;;;10402141;28;20176;-79
2022/11/09 11:58:10;;;;;;;21.63;14.47;;;11.20;1.00;;;;;;10429456;23;20256;-84
2022/11/09 12:04:05;;;;;;;24.47;16.43;;;11.20;1.00;;;;;;10336977;28;20519;-88
2022/11/09 12:10:01;;;;;;;23.30;16.07;;;11.10;1.00;;;;;;10357515;28;20279;-81
2022/11/09 12:15:53;;;;;;;24.47;16.03;;;11.10;1.00;;;;;;10302156;28;20298;-83
2022/11/09 12:21:46;;;;;;;22.93;14.73;;;11.00;38.90;;;;;;10309397;28;20510;-85
2022/11/09 12:27:55;;;;;;;21.57;14.83;;;11.10;99.90;;;;;;10313992;28;20236;-82
2022/11/09 12:33:38;;;;;;;24.93;16.50;;;11.10;99.90;;;;;;10341365;28;20250;-80
2022/11/09 12:39:24;;;;;;;25.80;15.00;;;11.10;99.90;;;;;;10300779;28;20213;-82
2022/11/09 12:45:26;;;;;;;24.63;16.53;;;11.10;99.90;;;;;;10285156;28;20235;-82
2022/11/09 12:51:11;;;;;;;21.77;12.83;;;11.00;99.90;;;;;;10284035;28;20216;-83
2022/11/09 12:57:01;;;;;;;22.47;13.80;;;11.00;99.90;;;;;;10302429;28;20228;-83
2022/11/09 13:02:56;;;;;;;20.57;13.13;;;11.00;99.90;;;;;;10300240;28;20185;-81
2022/11/09 13:08:39;;;;;;;24.40;14.80;;;10.90;99.90;;;;;;10364951;28;20200;-81
2022/11/09 13:14:21;;;;;;;18.00;12.03;;;10.80;99.90;;;;;;10380661;28;20369;-81
2022/11/09 13:20:21;;;;;;;47.63;25.80;;;10.80;99.90;;;;;;10344400;28;20467;-82
2022/11/09 13:26:29;;;;;;;26.97;18.17;;;10.80;99.90;;;;;;10284216;28;20271;-82
2022/11/09 13:32:10;;;;;;;26.33;16.70;;;10.80;99.90;;;;;;10285622;28;20434;-86
2022/11/09 13:37:56;;;;;;;29.03;17.83;;;10.80;99.90;;;;;;10292520;28;20413;-81
2022/11/09 13:43:39;;;;;;;57.83;34.03;;;10.70;99.90;;;;;;10301735;28;20233;-81
2022/11/09 13:49:43;;;;;;;31.10;18.87;;;10.70;99.90;;;;;;10298630;28;20219;-82
2022/11/09 13:55:34;;;;;;;25.47;16.27;;;10.70;99.90;;;;;;10299712;28;20248;-82
2022/11/09 14:01:33;;;;;;;28.37;16.40;;;10.60;99.90;;;;;;10305111;28;20257;-83
2022/11/09 14:07:31;;;;;;;27.20;16.33;;;10.60;99.90;;;;;;10329704;28;20305;-90
2022/11/09 14:13:33;;;;;;;26.03;15.70;;;10.70;99.90;;;;;;10329349;28;20502;-80
2022/11/09 14:19:33;;;;;;;22.40;14.30;;;10.50;99.90;;;;;;10300990;28;20211;-83
2022/11/09 14:25:16;;;;;;;25.13;15.43;;;10.60;99.90;;;;;;10290360;28;20239;-82
2022/11/09 14:30:57;;;;;;;22.13;15.50;;;10.60;99.90;;;;;;10300650;28;20213;-94
2022/11/09 14:36:40;;;;;;;31.47;18.10;;;10.50;99.90;;;;;;10305478;28;20201;-82
2022/11/09 14:42:39;;;;;;;44.47;22.43;;;10.50;99.90;;;;;;10307574;28;20220;-82
2022/11/09 14:48:23;;;;;;;64.90;38.20;;;10.40;99.90;;;;;;10288824;28;20212;-82
2022/11/09 14:54:08;;;;;;;33.33;22.27;;;10.50;99.90;;;;;;10306925;28;20398;-82
2022/11/09 14:59:48;;;;;;;28.77;18.83;;;10.50;99.90;;;;;;10327495;28;20850;-82
2022/11/09 15:05:38;;;;;;;24.57;17.87;;;10.40;99.90;;;;;;10351546;28;20232;-88
2022/11/09 15:11:18;;;;;;;37.30;24.57;;;10.40;99.90;;;;;;10375498;28;20224;-81
2022/11/09 15:17:01;;;;;;;32.63;21.10;;;10.30;99.90;;;;;;10327306;28;20219;-81
2022/11/09 15:22:55;;;;;;;43.30;24.40;;;10.30;99.90;;;;;;10314015;28;20221;-83
2022/11/09 15:28:44;;;;;;;36.47;22.10;;;10.20;99.90;;;;;;10303119;28;20205;-81
2022/11/09 15:34:26;;;;;;;42.30;24.13;;;10.10;99.90;;;;;;10318837;28;20207;-82
2022/11/09 15:40:10;;;;;;;36.47;25.67;;;10.00;99.90;;;;;;10326560;28;20253;-80
2022/11/09 15:45:50;;;;;;;44.63;29.43;;;9.90;99.90;;;;;;10309499;28;20441;-82
2022/11/09 15:51:30;;;;;;;42.47;27.87;;;9.80;99.90;;;;;;10285780;28;20522;-82
2022/11/09 15:57:17;;;;;;;33.63;22.53;;;9.80;99.90;;;;;;10296086;28;20222;-82
2022/11/09 16:02:57;;;;;;;39.33;23.73;;;9.70;99.90;;;;;;10311687;28;20204;-86
2022/11/09 16:08:37;;;;;;;40.43;23.83;;;9.70;99.90;;;;;;10372355;28;20506;-84
2022/11/09 16:14:20;;;;;;;37.93;24.07;;;9.70;99.90;;;;;;10318262;28;20211;-81
2022/11/09 16:20:01;;;;;;;34.27;21.20;;;9.70;99.90;;;;;;10323391;28;20271;-80
2022/11/09 16:25:42;;;;;;;45.47;27.67;;;9.70;99.90;;;;;;10340461;28;20230;-78
2022/11/09 16:31:22;;;;;;;63.67;34.53;;;9.80;99.90;;;;;;10343629;28;20208;-79
2022/11/09 16:37:13;;;;;;;50.50;28.60;;;9.80;99.90;;;;;;10344035;28;20493;-81
2022/11/09 16:42:54;;;;;;;63.37;37.53;;;9.80;99.90;;;;;;10366108;28;20228;-82
2022/11/09 16:48:34;;;;;;;53.33;30.07;;;9.90;99.90;;;;;;10365515;28;20188;-82
2022/11/09 16:54:14;;;;;;;42.37;25.93;;;9.90;99.90;;;;;;10326338;28;20212;-79
2022/11/09 16:59:53;;;;;;;40.53;25.73;;;10.00;99.90;;;;;;10319720;28;20227;-79
2022/11/09 17:05:33;;;;;;;37.73;24.63;;;10.00;99.90;;;;;;10332674;28;20536;-78
2022/11/09 17:11:14;;;;;;;38.50;23.83;;;10.00;99.90;;;;;;10367065;28;20200;-78
2022/11/09 17:16:54;;;;;;;41.97;25.60;;;10.00;99.90;;;;;;10344289;28;20264;-78
2022/11/09 17:22:35;;;;;;;46.57;29.53;;;9.90;99.90;;;;;;10361950;28;20206;-77
2022/11/09 17:28:17;;;;;;;32.50;22.67;;;10.00;99.90;;;;;;10355868;28;20536;-79
2022/11/09 17:33:57;;;;;;;34.77;22.60;;;10.00;99.90;;;;;;10344274;28;20266;-79
2022/11/09 17:39:39;;;;;;;37.47;23.70;;;10.00;99.90;;;;;;10343036;28;20206;-81
2022/11/09 17:45:19;;;;;;;39.97;24.30;;;10.10;99.90;;;;;;10356284;28;20219;-78
2022/11/09 17:51:00;;;;;;;29.63;20.83;;;10.00;99.90;;;;;;10338542;28;20506;-79
2022/11/09 17:56:40;;;;;;;44.03;25.17;;;10.00;99.90;;;;;;10355079;28;20549;-78
2022/11/09 18:02:19;;;;;;;33.20;22.80;;;9.90;99.90;;;;;;10298803;28;20282;-78
2022/11/09 18:07:59;;;;;;;31.20;21.90;;;9.90;99.90;;;;;;10353107;28;20334;-77
2022/11/09 18:13:40;;;;;;;32.80;21.53;;;9.90;99.90;;;;;;10323854;28;20203;-78
2022/11/09 18:19:20;;;;;;;34.27;20.73;;;9.90;99.90;;;;;;10343188;28;20204;-79
2022/11/09 18:25:00;;;;;;;36.53;22.13;;;9.90;99.90;;;;;;10343001;28;20225;-78
2022/11/09 18:30:40;;;;;;;34.17;21.00;;;9.90;99.90;;;;;;10343422;28;20196;-77
2022/11/09 18:36:20;;;;;;;56.30;37.33;;;9.90;99.90;;;;;;10337418;28;20432;-78
2022/11/09 18:42:00;;;;;;;38.10;23.40;;;9.90;99.90;;;;;;10326051;28;20199;-78
2022/11/09 18:47:40;;;;;;;37.03;23.13;;;9.90;99.90;;;;;;10326196;28;20240;-78
2022/11/09 18:53:22;;;;;;;41.70;23.73;;;9.90;99.90;;;;;;10343273;28;20511;-78
2022/11/09 18:59:02;;;;;;;39.80;21.87;;;9.90;99.90;;;;;;10359876;28;20240;-78
2022/11/09 19:04:43;;;;;;;38.73;21.53;;;9.90;99.90;;;;;;10320888;28;20240;-78
2022/11/09 19:10:23;;;;;;;43.57;24.10;;;9.90;99.90;;;;;;10314203;28;20390;-79
2022/11/09 19:16:04;;;;;;;40.87;22.13;;;9.90;99.90;;;;;;10349085;28;20223;-78
2022/11/09 19:21:49;;;;;;;44.77;26.13;;;9.90;99.90;;;;;;10354344;28;20205;-78
2022/11/09 19:27:29;;;;;;;41.23;24.10;;;9.90;99.90;;;;;;10348754;28;20231;-78
2022/11/09 19:33:09;;;;;;;43.10;23.97;;;9.90;99.90;;;;;;10331874;28;20409;-78
2022/11/09 19:38:49;;;;;;;39.20;21.97;;;9.80;99.90;;;;;;10342659;28;20203;-79
2022/11/09 19:44:29;;;;;;;39.57;23.33;;;9.90;99.90;;;;;;10359846;28;20254;-80
2022/11/09 19:50:09;;;;;;;40.17;22.63;;;9.90;99.90;;;;;;10342428;28;20208;-78
2022/11/09 19:55:49;;;;;;;43.67;23.83;;;9.90;99.90;;;;;;10359604;28;20196;-77
2022/11/09 20:01:29;;;;;;;43.50;26.23;;;9.90;99.90;;;;;;10325730;28;20271;-79
2022/11/09 20:07:09;;;;;;;41.10;23.80;;;9.80;99.90;;;;;;10360714;28;20238;-79
2022/11/09 20:12:49;;;;;;;38.23;22.47;;;9.70;99.90;;;;;;10316600;28;20203;-81
2022/11/09 20:18:29;;;;;;;35.13;20.37;;;9.70;99.90;;;;;;10335933;28;20210;-79
2022/11/09 20:24:11;;;;;;;38.43;22.13;;;9.70;99.90;;;;;;10306312;28;20207;-79
2022/11/09 20:29:51;;;;;;;48.13;25.40;;;9.70;99.90;;;;;;10300720;28;20505;-78
2022/11/09 20:35:31;;;;;;;37.87;23.50;;;9.70;99.90;;;;;;10300311;28;20209;-78
2022/11/09 20:41:11;;;;;;;40.50;23.03;;;9.70;99.90;;;;;;10300310;28;20227;-78
2022/11/09 20:46:51;;;;;;;45.83;24.20;;;9.70;99.90;;;;;;10300046;28;20433;-81
2022/11/09 20:52:30;;;;;;;35.80;21.87;;;9.70;99.90;;;;;;10299592;28;20208;-78
2022/11/09 20:58:12;;;;;;;42.37;24.27;;;9.70;99.90;;;;;;10299712;28;20459;-81
2022/11/09 21:03:52;;;;;;;34.87;21.80;;;9.70;99.90;;;;;;10299309;28;20271;-77
2022/11/09 21:09:32;;;;;;;40.00;22.83;;;9.70;99.90;;;;;;10364096;28;20291;-78
2022/11/09 21:15:14;;;;;;;40.23;25.27;;;9.70;99.90;;;;;;10344787;28;20194;-77
2022/11/09 21:20:54;;;;;;;33.40;22.50;;;9.60;99.90;;;;;;10340343;28;20513;-80
2022/11/09 21:32:33;;;;;;;34.80;21.07;;;9.50;99.90;;;;;;10339095;28;20404;-78
2022/11/09 21:38:13;;;;;;;34.23;20.23;;;9.40;99.90;;;;;;10344185;28;20381;-81
2022/11/09 21:43:55;;;;;;;30.40;19.30;;;9.30;99.90;;;;;;10327884;28;20207;-81
2022/11/09 21:49:35;;;;;;;37.43;20.93;;;9.10;99.90;;;;;;10356355;28;20203;-82
2022/11/09 21:55:14;;;;;;;35.63;22.20;;;9.10;99.90;;;;;;10329184;28;20210;-83
2022/11/09 22:01:03;;;;;;;39.50;22.43;;;9.00;99.90;;;;;;10311808;28;20240;-80
2022/11/09 22:06:43;;;;;;;32.73;19.47;;;8.90;99.90;;;;;;10350418;28;20300;-82
2022/11/09 22:24:22;;;;;;;42.17;25.23;;;8.80;99.90;;;;;;10299551;28;20230;-79
2022/11/09 22:30:03;;;;;;;46.10;26.00;;;8.90;99.90;;;;;;10294543;28;20207;-81
2022/11/09 22:35:43;;;;;;;47.07;25.77;;;8.80;99.90;;;;;;10322500;28;20197;-79
2022/11/09 22:41:23;;;;;;;49.43;26.37;;;8.80;99.90;;;;;;10322031;28;20196;-82
2022/11/09 22:47:03;;;;;;;39.60;24.00;;;8.70;99.90;;;;;;10296392;28;20256;-81
2022/11/09 22:52:43;;;;;;;51.53;26.43;;;8.70;99.90;;;;;;10324137;28;20421;-83
2022/11/09 22:58:25;;;;;;;45.90;25.17;;;8.60;99.90;;;;;;10322072;28;20232;-83
2022/11/09 23:04:04;;;;;;;46.57;24.00;;;8.60;99.90;;;;;;10321342;28;20193;-79
2022/11/09 23:09:44;;;;;;;37.93;21.87;;;8.60;99.90;;;;;;10326278;28;20210;-82
2022/11/09 23:15:25;;;;;;;40.83;24.07;;;8.50;99.90;;;;;;10339381;28;20217;-79
2022/11/09 23:21:06;;;;;;;71.53;34.67;;;8.50;99.90;;;;;;10335928;28;20574;-79
2022/11/09 23:26:46;;;;;;;61.13;31.23;;;8.50;99.90;;;;;;10348952;28;20214;-81
2022/11/09 23:32:26;;;;;;;47.83;25.43;;;8.50;99.90;;;;;;10343059;28;20203;-81
2022/11/09 23:38:06;;;;;;;44.53;24.60;;;8.40;99.90;;;;;;10342279;28;20225;-80
2022/11/09 23:43:47;;;;;;;45.90;24.10;;;8.40;99.90;;;;;;10331454;28;20514;-78
2022/11/09 23:49:28;;;;;;;45.20;23.40;;;8.40;99.90;;;;;;10342835;28;20499;-79
2022/11/09 23:55:08;;;;;;;41.90;22.23;;;8.40;99.90;;;;;;10342408;28;20214;-79
